Show Individual Results Yes
Show Team Results Yes
Show Relay Team Results Yes
Selected gender combined
Show name as link Yes
Bush Capital - 16k (id:1037)
Bush Capital Bush Marathon - 16k (16k)
Saturday, 31st July 2010

Place Name Chest Sex State Age CAT Time Pace
1. Laurie Cullen ACT 41 M40 1:01:26 3:50
2. Anthony Scott ACT 48 M45 1:01:37 3:51
3. Paul Imhoff ACT 35 M35 1:05:34 4:05
4. Jason Chalker ACT 35 M35 1:06:01 4:07
5. John Fleming ACT 38 M35 1:06:15 4:08
6. Trevor Jacobs ACT 58 M55 1:06:27 4:09
7. Luke Schofield ACT 26 1:06:58 4:11
8. Simon Wellington ACT 26 1:08:07 4:15
9. Scott Connolly NSW 24 1:09:26 4:20
10. Scott Martin NSW 34 M30 1:09:43 4:21
11. Lance Purdon ACT 38 M35 1:10:59 4:26
12. Ian McDonald ACT 48 M45 1:11:03 4:26
13. Richard Faulks ACT 51 M50 1:11:04 4:26
14. Lee Purkiss ACT 27 1:11:43 4:28
15. Gary Potter ACT 41 M40 1:11:54 4:29
16. Tom Sharp ACT 27 1:12:16 4:31
17. Paul Magill ACT 41 M40 1:12:45 4:32
18. Anthony Collie NSW 36 M35 1:12:54 4:33
19. Julia Reed F ACT 31 W30 1:12:58 4:33
20. Barry Fields ACT 44 M40 1:13:46 4:36
21. Paul Tilse ACT 39 M35 1:15:24 4:42
22. Gary Bowen ACT 53 M50 1:15:43 4:43
23. Alex Kearns ACT 34 M30 1:16:07 4:45
24. Gareth Smith ACT 37 M35 1:16:08 4:45
25. Sarah Fien F NSW 42 W40 1:16:58 4:48
26. Davin Fifield ACT 39 M35 1:16:59 4:48
27. Emma Adams F ACT 41 W40 1:17:20 4:50
28. Sam Croser ACT 27 1:18:25 4:54
29. Michelle Ainsworth F ACT 26 1:18:26 4:54
30. Adam Briggs 38 M35 1:18:28 4:54
31. Joe Andrews ACT 36 M35 1:19:02 4:56
32. Graham Fifield ACT 27 1:19:44 4:59
33. Darren Leseberg ACT 41 M40 1:20:09 5:00
34. Jonathan Paniagua ACT 25 1:20:29 5:01
35. Ingrid Hammer F ACT 24 1:20:44 5:02
36. Phillipa Hosie F 27 1:20:48 5:03
37. Brenton Philp ACT 34 M30 1:20:54 5:03
38. Greg Byfield ACT 33 M30 1:21:21 5:05
39. Neil Davenport ACT 34 M30 1:21:38 5:06
40. Luke Yeaman ACT 32 M30 1:21:51 5:06
41. Fiona Buick F ACT 30 W30 1:21:52 5:07
42. Liza Martini F NSW 41 W40 1:22:09 5:08
43. Anthony Olliffe ACT 55 M55 1:22:13 5:08
44. Amelia Bogatko F ACT 23 1:22:14 5:08
45. Paul Baumgarten ACT 46 M45 1:22:37 5:09
46. Adam Rolls ACT 28 1:23:04 5:11
47. Jim White ACT 61 M60 1:23:44 5:14
48. Steven Murphy ACT 29 1:23:54 5:14
49. Linda Gray F ACT 25 1:23:56 5:14
50. Pierre Grobler ACT 31 M30 1:24:19 5:16
51. Kathy Young F ACT 35 W35 1:24:44 5:17
52. Lucy McGarva F ACT 26 1:25:21 5:20
53. Yili Zhu ACT 47 M45 1:25:36 5:21
54. Karen Dean F ACT 27 1:25:59 5:22
55. Luke Cartwright 27 1:26:00 5:22
56. Emma Fahey F 27 1:26:14 5:23
57. Ian Wilson ACT 47 M45 1:26:28 5:24
58. William Rowell ACT 24 1:26:45 5:25
59. George Quarmby ACT 55 M55 1:26:57 5:26
60. Terry Dixon NSW 63 M60 1:27:14 5:27
61. Mick Ginman ACT 45 M45 1:27:21 5:27
62. Julia Simic F ACT 30 W30 1:27:24 5:27
63. Kerri Louttit F ACT 40 W40 1:27:30 5:28
64. Corbin Ellison ACT 44 M40 1:27:32 5:28
65. Rachel Antonio F ACT 40 W40 1:27:48 5:29
66. Tamsin Thomas F ACT 36 W35 1:27:49 5:29
67. Scott Nielsen ACT 36 M35 1:28:21 5:31
68. Peter Norton ACT 42 M40 1:28:23 5:31
69. Kim Pidcock NSW 47 M45 1:28:26 5:31
70. Jeff Pesick ACT 42 M40 1:28:56 5:33
71. Belinda Bounty F ACT 31 W30 1:29:08 5:34
72. Shannon Shattock F ACT 32 W30 1:29:11 5:34
73. Trevor Mathews 41 M40 1:29:13 5:34
74. Mark Kethro ACT 49 M45 1:29:18 5:34
75. Annette Sugden F QLD 47 W45 1:29:18 5:34
76. Jacki Hagger F ACT 44 W40 1:29:22 5:35
77. Nerida Gibb F ACT 40 W40 1:29:47 5:36
78. David Dewar NSW 26 1:30:09 5:38
79. Keron Wise F 40 W40 1:30:15 5:38
80. Amanda Nott F ACT 44 W40 1:30:20 5:38
81. Mel Childs F ACT 32 W30 1:30:39 5:39
82. Kate Aitken Rasink F ACT 34 W30 1:30:56 5:41
83. Deciana Speckmann F ACT 29 1:30:57 5:41
84. Shoko Okada F ACT 37 W35 1:31:16 5:42
85. Matthew Day NSW 46 M45 1:31:24 5:42
86. Chris Diamond 18 1:31:24 5:42
87. Joel Davies ACT 26 1:31:33 5:43
88. Geoffrey Francis 68 M65 1:31:55 5:44
89. Kate Walcott F ACT 31 W30 1:32:05 5:45
90. Debbie Lowrey F ACT 37 W35 1:32:08 5:45
91. Ryan Ruddick ACT 27 1:32:49 5:48
92. Alan Newton ACT 68 M65 1:32:57 5:48
93. Kevin Chapman ACT 66 M65 1:33:13 5:49
94. Louisa Barnsley F ACT 54 W50 1:33:29 5:50
95. Ray Bramwell ACT 75 M75 1:33:31 5:50
96. Emily Kennedy F ACT 30 W30 1:34:03 5:52
97. Kate Sykes F ACT 36 W35 1:34:14 5:53
98. Stephen Borthwick ACT 47 M45 1:34:36 5:54
99. Krissi Brewster F ACT 43 W40 1:35:06 5:56
100. Amy Simon F ACT 37 W35 1:35:07 5:56
101. Zainab Farouk F NSW 23 1:35:24 5:57
102. Julianne Quaine F ACT 50 W50 1:36:00 6:00
103. Susan Sturgeon F ACT 36 W35 1:36:08 6:00
104. Marlene Reid F ACT 55 W55 1:36:12 6:00
105. Stuart Lindenmayer ACT 33 M30 1:36:38 6:02
106. Narelle Clegg F ACT 50 W50 1:36:48 6:03
107. Suzanne Millar F ACT 49 W45 1:37:10 6:04
108. Brian Jones ACT 50 M50 1:37:43 6:06
109. Jessica Faulks F ACT 27 1:37:52 6:07
110. Michelle Patt F ACT 31 W30 1:37:53 6:07
111. Fabio Cajina ACT 37 M35 1:38:23 6:08
112. Charine Bennett F ACT 36 W35 1:38:35 6:09
113. George Kubitzky ACT 57 M55 1:38:52 6:10
114. Kate Grimmond F ACT 37 W35 1:38:56 6:11
115. Sue Rymer F ACT 47 W45 1:39:01 6:11
116. Samantha Aspin F ACT 40 W40 1:39:11 6:11
117. Ewen Thompson ACT 53 M50 1:39:27 6:12
118. Susan Donaldson F NSW 36 W35 1:39:32 6:13
119. Michael Stack ACT 43 M40 1:40:06 6:15
120. Ben Smoker 38 M35 1:40:25 6:16
121. Nicole Maher F ACT 42 W40 1:40:39 6:17
122. Tony Henshaw ACT 54 M50 1:40:43 6:17
123. Rachael Whiteley-Black F ACT 33 W30 1:40:44 6:17
124. Margie van Belkom F ACT 58 W55 1:40:46 6:17
125. Lisa Quilty F ACT 29 1:41:13 6:19
126. Maria White F ACT 57 W55 1:41:24 6:20
127. Stephen Gray NSW 54 M50 1:41:27 6:20
128. Alison Sirus F 28 1:42:10 6:23
129. Charlotte Adams F ACT 39 W35 1:42:51 6:25
130. Melanie Carmody F ACT 25 1:43:01 6:26
131. Julie Bell F ACT 60 W60 1:43:48 6:29
132. Julian Mcauley ACT 25 1:44:10 6:30
133. Prue Bradford F ACT 51 W50 1:44:16 6:31
134. Stephen Bradford ACT 56 M55 1:44:17 6:31
135. Ruth Baussmann F ACT 60 W60 1:44:32 6:32
136. Margaret McSpadden F ACT 63 W60 1:44:38 6:32
137. Margaret Wilson F ACT 64 W60 1:45:04 6:34
138. Jennie Blake F ACT 53 W50 1:45:58 6:37
139. Adam Harris ACT 38 M35 1:46:15 6:38
140. Helen McAuley F ACT 64 W60 1:46:17 6:38
141. Amanda Heap F ACT 49 W45 1:46:18 6:38
142. Belinda Macnab F 38 W35 1:46:19 6:38
143. Polly Templeton F ACT 45 W45 1:47:05 6:41
144. Nicolee Martin F ACT 44 W40 1:47:22 6:42
145. Marian Blake F ACT 56 W55 1:48:54 6:48
146. Tania Walsh F NSW 35 W35 1:49:44 6:51
147. Angela Southwell F ACT 37 W35 1:50:16 6:53
148. Drew Sullivan 24 1:51:12 6:57
149. Jillian Wisbey F ACT 57 W55 1:52:53 7:03
150. Angela Barr F ACT 32 W30 1:52:53 7:03
151. Jeff Howard ACT 32 M30 1:55:26 7:12
152. Emma Campbell F ACT 33 W30 1:56:04 7:15
153. Verity Le maitre F ACT 34 W30 1:57:36 7:21
154. Therese Smith F ACT 43 W40 1:58:10 7:23
155. Jennifer Gilchrist F ACT 58 W55 1:58:34 7:24
156. Tegan Roberts F ACT 17 1:58:41 7:25
157. Elizabeth Kretschmer F ACT 35 W35 1:58:52 7:25
158. Kyril Estrin ACT 22 1:59:12 7:27
159. Melanie Jose F ACT 34 W30 1:59:12 7:27
160. Stacey Corkhill F ACT 28 1:59:13 7:27
161. Rad Leovic ACT 82 M80 2:04:02 7:45
162. Jenny Odgers F ACT 71 W70 2:07:24 7:57
163. Jim Short ACT 71 M70 2:08:03 8:00
164. Bernie Rogers ACT 67 M65 2:27:29 9:13
165. Samantha Klitscher F ACT 45 W45 2:28:14 9:15
166. Eugene Sullivan 20 2:31:04 9:26
167. Ashliegh Sullivan F 22 2:31:04 9:26